Time;durP1;ratioP1;P1;durP2;ratioP2;P2;SDS_P1;SDS_P2;PMS_P1;PMS_P2;Temp;Humidity;BMP_temperature;BMP_pressure;BME280_temperature;BME280_humidity;BME280_pressure;Samples;Min_cycle;Max_cycle;Signal;HPM_P1;HPM_P2
2021/12/21 00:00:21;;;;;;;8.70;6.40;;;;;;;;;;5051049;23;20492;-81
2021/12/21 00:02:49;;;;;;;11.50;6.40;;;;;;;;;;5059632;28;20425;-80
2021/12/21 00:05:19;;;;;;;8.97;5.23;;;;;;;;;;5061748;28;20452;-81
2021/12/21 00:07:46;;;;;;;8.07;6.00;;;;;;;;;;5061903;28;20445;-81
2021/12/21 00:10:12;;;;;;;10.53;5.60;;;;;;;;;;5062756;28;20401;-81
2021/12/21 00:12:47;;;;;;;8.67;5.97;;;;;;;;;;5062854;28;20417;-81
2021/12/21 00:15:33;;;;;;;10.60;5.87;;;;;;;;;;5062431;28;20419;-81
2021/12/21 00:18:14;;;;;;;9.63;5.63;;;;;;;;;;5062952;28;20520;-81
2021/12/21 00:23:36;;;;;;;8.53;5.70;;;;;;;;;;5062071;28;20446;-81
2021/12/21 00:26:06;;;;;;;8.37;5.30;;;;;;;;;;5062426;28;20410;-80
2021/12/21 00:28:51;;;;;;;10.13;6.30;;;;;;;;;;5061776;28;20390;-81
2021/12/21 00:31:17;;;;;;;11.13;6.73;;;;;;;;;;5060201;28;20434;-81
2021/12/21 00:33:46;;;;;;;9.33;6.23;;;;;;;;;;5061104;28;20425;-80
2021/12/21 00:36:12;;;;;;;7.80;6.13;;;;;;;;;;5061549;28;20894;-81
2021/12/21 00:38:38;;;;;;;9.97;7.40;;;;;;;;;;5059638;28;20499;-81
2021/12/21 00:41:04;;;;;;;12.40;6.40;;;;;;;;;;5061218;28;20402;-81
2021/12/21 00:43:31;;;;;;;10.30;6.30;;;;;;;;;;5060943;28;20449;-81
2021/12/21 00:45:57;;;;;;;10.40;6.30;;;;;;;;;;5059770;28;20506;-80
2021/12/21 00:48:28;;;;;;;13.57;8.47;;;;;;;;;;5061474;28;20410;-80
2021/12/21 00:50:54;;;;;;;9.03;6.20;;;;;;;;;;5060823;28;20421;-79
2021/12/21 00:53:20;;;;;;;10.20;6.70;;;;;;;;;;5061389;28;20445;-80
2021/12/21 00:55:47;;;;;;;8.37;5.17;;;;;;;;;;5060127;28;20429;-80
2021/12/21 00:58:13;;;;;;;16.33;6.40;;;;;;;;;;5061034;28;20432;-79
2021/12/21 01:00:39;;;;;;;9.93;6.73;;;;;;;;;;5060764;28;20422;-80
2021/12/21 01:03:10;;;;;;;11.20;5.70;;;;;;;;;;5060623;28;20457;-80
2021/12/21 01:05:49;;;;;;;10.00;6.57;;;;;;;;;;5061089;28;20394;-80
2021/12/21 01:08:20;;;;;;;4.80;4.30;;;;;;;;;;5060991;28;20379;-79
2021/12/21 01:13:44;;;;;;;9.70;5.43;;;;;;;;;;5060821;28;20437;-80
2021/12/21 01:21:32;;;;;;;6.70;4.90;;;;;;;;;;5060560;28;20386;-80
2021/12/21 01:32:13;;;;;;;6.70;4.83;;;;;;;;;;5059889;28;20861;-79
2021/12/21 01:40:30;;;;;;;6.90;4.13;;;;;;;;;;5056304;28;20413;-79
2021/12/21 01:50:57;;;;;;;8.23;4.03;;;;;;;;;;5060184;28;20389;-82
2021/12/21 01:53:23;;;;;;;8.97;4.03;;;;;;;;;;5060457;28;20530;-81
2021/12/21 01:55:49;;;;;;;5.80;4.10;;;;;;;;;;5060423;28;20406;-81
2021/12/21 01:58:17;;;;;;;8.53;4.83;;;;;;;;;;5059639;28;20413;-79
2021/12/21 02:00:43;;;;;;;11.30;5.03;;;;;;;;;;5058088;28;20917;-81
2021/12/21 02:03:09;;;;;;;7.90;4.93;;;;;;;;;;5058908;28;20437;-81
2021/12/21 02:05:36;;;;;;;8.87;6.17;;;;;;;;;;5059937;28;20414;-82
2021/12/21 02:08:02;;;;;;;13.27;4.47;;;;;;;;;;5058550;28;20535;-81
2021/12/21 02:10:29;;;;;;;7.80;5.60;;;;;;;;;;5059463;28;20430;-82
2021/12/21 02:12:55;;;;;;;6.83;5.30;;;;;;;;;;5058562;28;20418;-81
2021/12/21 02:15:24;;;;;;;9.20;5.20;;;;;;;;;;5058863;28;20406;-81
2021/12/21 02:20:57;;;;;;;13.43;5.40;;;;;;;;;;5025070;28;20432;-80
2021/12/21 02:23:42;;;;;;;17.10;5.50;;;;;;;;;;5057240;28;20555;-81
2021/12/21 02:26:33;;;;;;;12.50;6.10;;;;;;;;;;5056470;28;20410;-80
2021/12/21 02:29:17;;;;;;;9.17;5.50;;;;;;;;;;5066735;28;20429;-81
2021/12/21 02:31:45;;;;;;;9.70;6.10;;;;;;;;;;5078669;28;20436;-80
2021/12/21 02:34:12;;;;;;;8.97;5.97;;;;;;;;;;5058507;28;20417;-79
2021/12/21 02:36:39;;;;;;;10.67;5.90;;;;;;;;;;5059755;28;20414;-79
2021/12/21 02:39:06;;;;;;;10.50;6.73;;;;;;;;;;5057291;28;20402;-79
2021/12/21 02:41:32;;;;;;;10.27;6.43;;;;;;;;;;5054478;28;20419;-80
2021/12/21 02:43:58;;;;;;;7.80;5.57;;;;;;;;;;5056053;28;20441;-81
2021/12/21 02:46:25;;;;;;;11.77;7.43;;;;;;;;;;5057024;28;20425;-79
2021/12/21 02:48:51;;;;;;;10.00;6.83;;;;;;;;;;5056274;28;20816;-80
2021/12/21 02:51:17;;;;;;;14.10;7.10;;;;;;;;;;5056007;28;20425;-80
2021/12/21 02:53:44;;;;;;;19.43;9.93;;;;;;;;;;5059255;28;20433;-81
2021/12/21 02:56:15;;;;;;;10.43;6.60;;;;;;;;;;5056505;28;20434;-80
2021/12/21 02:58:42;;;;;;;10.70;7.17;;;;;;;;;;5042528;28;20422;-79
2021/12/21 03:01:09;;;;;;;21.23;7.83;;;;;;;;;;5056368;28;20424;-80
2021/12/21 03:03:35;;;;;;;14.30;7.50;;;;;;;;;;5059396;28;20455;-78
2021/12/21 03:06:05;;;;;;;10.40;8.40;;;;;;;;;;5063085;28;20402;-81
2021/12/21 03:08:41;;;;;;;18.63;9.00;;;;;;;;;;5059873;28;20404;-81
2021/12/21 03:16:18;;;;;;;18.43;11.00;;;;;;;;;;5057791;28;20952;-80
2021/12/21 03:18:44;;;;;;;15.30;9.67;;;;;;;;;;5057666;28;20398;-80
2021/12/21 03:21:11;;;;;;;22.80;10.87;;;;;;;;;;5058448;28;20414;-81
2021/12/21 03:23:38;;;;;;;21.10;12.27;;;;;;;;;;5057646;28;20458;-80
2021/12/21 03:26:04;;;;;;;15.17;11.00;;;;;;;;;;5057985;28;20486;-79
2021/12/21 03:28:30;;;;;;;25.70;12.37;;;;;;;;;;5057172;28;20406;-80
2021/12/21 03:30:57;;;;;;;20.97;12.57;;;;;;;;;;5056879;28;20890;-79
2021/12/21 03:33:23;;;;;;;21.93;13.43;;;;;;;;;;5056061;28;20422;-80
2021/12/21 03:35:49;;;;;;;29.93;13.60;;;;;;;;;;5055952;28;20410;-79
2021/12/21 03:38:16;;;;;;;31.87;14.40;;;;;;;;;;5055919;28;20782;-80
2021/12/21 03:40:42;;;;;;;22.63;13.27;;;;;;;;;;5061091;28;20401;-79
2021/12/21 03:43:10;;;;;;;25.43;14.90;;;;;;;;;;5060556;28;20447;-80
2021/12/21 03:45:40;;;;;;;21.97;13.73;;;;;;;;;;5060809;28;20812;-80
2021/12/21 03:48:06;;;;;;;24.10;14.47;;;;;;;;;;5060869;28;20429;-78
2021/12/21 03:50:32;;;;;;;26.20;13.43;;;;;;;;;;5058010;28;20841;-79
2021/12/21 03:52:58;;;;;;;23.23;12.90;;;;;;;;;;5060019;28;20430;-79
2021/12/21 03:55:24;;;;;;;23.17;13.77;;;;;;;;;;5058208;28;20409;-79
2021/12/21 03:57:50;;;;;;;25.67;14.20;;;;;;;;;;5059168;28;20909;-78
2021/12/21 04:00:18;;;;;;;27.00;14.77;;;;;;;;;;5058229;28;20425;-79
2021/12/21 04:02:44;;;;;;;25.70;13.80;;;;;;;;;;5057244;28;20437;-78
2021/12/21 04:05:10;;;;;;;25.83;12.87;;;;;;;;;;5058447;28;20532;-78
2021/12/21 04:07:36;;;;;;;22.77;12.47;;;;;;;;;;5058281;28;20840;-79
2021/12/21 04:10:03;;;;;;;24.60;12.80;;;;;;;;;;5058081;28;20425;-79
2021/12/21 04:12:29;;;;;;;19.70;12.67;;;;;;;;;;5057724;28;20418;-79
2021/12/21 04:14:57;;;;;;;21.77;12.63;;;;;;;;;;5058092;28;20412;-79
2021/12/21 04:17:24;;;;;;;27.20;13.43;;;;;;;;;;5082017;28;20409;-79
2021/12/21 04:19:51;;;;;;;22.50;13.87;;;;;;;;;;5081798;28;20408;-80
2021/12/21 04:22:18;;;;;;;21.87;13.93;;;;;;;;;;5081109;28;20438;-79
2021/12/21 04:24:44;;;;;;;19.30;12.03;;;;;;;;;;5081181;28;20449;-78
2021/12/21 04:27:10;;;;;;;24.43;14.00;;;;;;;;;;5062004;28;20410;-80
2021/12/21 04:29:36;;;;;;;20.70;11.93;;;;;;;;;;5057175;28;20433;-80
2021/12/21 04:32:02;;;;;;;15.50;10.83;;;;;;;;;;5058979;28;20465;-80
2021/12/21 04:34:28;;;;;;;18.10;11.03;;;;;;;;;;5056682;28;20437;-79
2021/12/21 04:36:55;;;;;;;22.00;11.67;;;;;;;;;;5060832;28;20530;-79
2021/12/21 04:39:39;;;;;;;18.20;9.83;;;;;;;;;;5060660;28;20394;-80
2021/12/21 04:42:05;;;;;;;13.10;9.20;;;;;;;;;;5060579;28;20418;-79
2021/12/21 04:44:32;;;;;;;12.63;9.00;;;;;;;;;;5061235;28;20449;-80
2021/12/21 04:46:58;;;;;;;15.07;8.80;;;;;;;;;;5060870;28;20765;-80
2021/12/21 04:49:24;;;;;;;12.90;8.53;;;;;;;;;;5060170;28;20466;-80
2021/12/21 04:51:50;;;;;;;16.83;9.00;;;;;;;;;;5059466;28;20412;-81
2021/12/21 04:54:16;;;;;;;12.40;9.13;;;;;;;;;;5061769;28;20422;-81
2021/12/21 04:56:42;;;;;;;13.90;8.47;;;;;;;;;;5061794;28;20416;-81
2021/12/21 04:59:08;;;;;;;14.70;8.10;;;;;;;;;;5062144;28;20402;-80
2021/12/21 05:01:34;;;;;;;11.30;8.23;;;;;;;;;;5061929;28;20422;-80
2021/12/21 05:04:00;;;;;;;14.03;9.23;;;;;;;;;;5062077;28;20527;-80
2021/12/21 05:06:26;;;;;;;13.70;8.97;;;;;;;;;;5062493;28;20429;-80
2021/12/21 05:09:04;;;;;;;14.63;8.07;;;;;;;;;;5062145;28;20397;-80
2021/12/21 05:11:34;;;;;;;13.43;7.60;;;;;;;;;;5062010;28;20465;-80
2021/12/21 05:14:01;;;;;;;9.43;6.53;;;;;;;;;;5061395;28;20430;-80
2021/12/21 05:16:27;;;;;;;9.67;6.87;;;;;;;;;;5056463;28;20434;-80
2021/12/21 05:18:53;;;;;;;10.77;7.30;;;;;;;;;;5060912;28;20416;-80
2021/12/21 05:21:19;;;;;;;10.97;6.87;;;;;;;;;;5061496;28;20410;-81
2021/12/21 05:23:45;;;;;;;11.67;6.90;;;;;;;;;;5057844;28;20465;-79
2021/12/21 05:26:11;;;;;;;8.30;6.40;;;;;;;;;;5040067;28;20419;-80
2021/12/21 05:28:37;;;;;;;7.73;6.80;;;;;;;;;;5041241;28;20415;-80
2021/12/21 05:31:03;;;;;;;8.20;6.90;;;;;;;;;;5041083;28;20403;-81
2021/12/21 05:33:29;;;;;;;9.03;7.57;;;;;;;;;;5059570;22;20505;-63
2021/12/21 05:35:56;;;;;;;13.00;7.53;;;;;;;;;;5045520;28;20402;-62
2021/12/21 05:38:30;;;;;;;13.70;7.77;;;;;;;;;;5054696;28;20387;-62
2021/12/21 05:41:00;;;;;;;16.30;9.00;;;;;;;;;;5054645;28;20375;-61
2021/12/21 05:43:26;;;;;;;9.80;6.87;;;;;;;;;;5054496;28;20449;-62
2021/12/21 05:45:52;;;;;;;11.20;7.23;;;;;;;;;;5054629;28;20480;-62
2021/12/21 05:48:18;;;;;;;14.00;8.03;;;;;;;;;;5054503;28;20485;-62
2021/12/21 05:50:44;;;;;;;9.67;6.97;;;;;;;;;;5054503;28;20394;-62
2021/12/21 05:53:10;;;;;;;9.27;7.83;;;;;;;;;;5054479;28;20402;-61
2021/12/21 05:55:36;;;;;;;12.67;7.20;;;;;;;;;;5054222;28;20418;-61
2021/12/21 05:58:02;;;;;;;13.30;7.40;;;;;;;;;;5054430;28;20421;-62
2021/12/21 06:00:30;;;;;;;14.00;8.83;;;;;;;;;;5054033;28;20488;-61
2021/12/21 06:02:56;;;;;;;13.90;7.80;;;;;;;;;;5054025;28;20800;-61
2021/12/21 06:05:23;;;;;;;9.60;6.43;;;;;;;;;;5053964;28;20457;-62
2021/12/21 06:07:52;;;;;;;8.00;6.93;;;;;;;;;;5054108;28;20826;-63
2021/12/21 06:10:42;;;;;;;11.13;7.63;;;;;;;;;;5053952;28;20438;-63
2021/12/21 06:26:35;;;;;;;11.73;7.67;;;;;;;;;;5022536;28;20484;-63
2021/12/21 06:29:02;;;;;;;10.80;7.03;;;;;;;;;;5053636;28;20398;-63
2021/12/21 06:31:28;;;;;;;9.90;6.73;;;;;;;;;;5053902;28;20406;-63
2021/12/21 06:33:54;;;;;;;14.23;8.90;;;;;;;;;;5053397;28;20445;-62
2021/12/21 06:36:20;;;;;;;11.80;7.63;;;;;;;;;;5053266;28;20967;-63
2021/12/21 06:38:47;;;;;;;15.30;8.00;;;;;;;;;;5053525;28;20916;-62
2021/12/21 06:41:13;;;;;;;11.60;7.40;;;;;;;;;;5053405;28;20421;-63
2021/12/21 06:43:39;;;;;;;9.53;7.30;;;;;;;;;;5053344;28;20548;-63
2021/12/21 06:46:13;;;;;;;13.20;8.23;;;;;;;;;;5053379;28;20818;-63
2021/12/21 06:51:43;;;;;;;11.00;7.33;;;;;;;;;;5053482;28;20412;-61
2021/12/21 06:54:09;;;;;;;12.17;7.20;;;;;;;;;;5053049;28;20421;-62
2021/12/21 06:56:35;;;;;;;12.93;8.20;;;;;;;;;;5053246;28;20401;-63
2021/12/21 06:59:01;;;;;;;13.00;7.87;;;;;;;;;;5053427;28;20527;-60
2021/12/21 07:01:28;;;;;;;11.00;8.93;;;;;;;;;;5053365;28;20471;-60
2021/12/21 07:03:55;;;;;;;11.70;7.83;;;;;;;;;;5053082;28;20466;-62
2021/12/21 07:06:23;;;;;;;15.10;9.77;;;;;;;;;;5052875;28;20409;-63
2021/12/21 07:09:36;;;;;;;16.53;10.13;;;;;;;;;;5052910;28;20421;-63
2021/12/21 07:11:57;;;;;;;15.10;9.50;;;;;;;;;;5047336;28;20480;-63
2021/12/21 07:19:53;;;;;;;18.73;11.43;;;;;;;;;;5053124;28;20744;-63
2021/12/21 07:22:19;;;;;;;24.00;12.53;;;;;;;;;;5052879;28;20431;-62
2021/12/21 07:24:47;;;;;;;23.73;14.10;;;;;;;;;;5053517;28;21002;-62
2021/12/21 07:27:14;;;;;;;18.90;12.70;;;;;;;;;;5056703;28;20402;-62
2021/12/21 07:29:40;;;;;;;21.00;11.93;;;;;;;;;;5055751;28;20456;-62
2021/12/21 07:32:06;;;;;;;18.40;12.37;;;;;;;;;;5053767;28;20418;-61
2021/12/21 07:34:32;;;;;;;25.83;13.20;;;;;;;;;;5054144;28;20445;-62
2021/12/21 07:36:58;;;;;;;17.80;11.90;;;;;;;;;;5053868;28;20437;-63
2021/12/21 07:39:24;;;;;;;24.17;13.93;;;;;;;;;;5055505;28;20414;-62
2021/12/21 07:41:50;;;;;;;19.00;12.97;;;;;;;;;;5055906;28;20410;-62
2021/12/21 07:44:16;;;;;;;24.20;13.50;;;;;;;;;;5057226;28;20541;-62
2021/12/21 07:46:42;;;;;;;21.70;13.53;;;;;;;;;;5056846;28;20402;-61
2021/12/21 07:49:09;;;;;;;24.87;12.00;;;;;;;;;;5056647;28;20898;-62
2021/12/21 07:51:36;;;;;;;33.10;14.00;;;;;;;;;;5056253;28;20390;-62
2021/12/21 07:54:02;;;;;;;22.97;11.73;;;;;;;;;;5057126;28;20426;-62
2021/12/21 07:56:28;;;;;;;27.80;12.47;;;;;;;;;;5057006;28;20877;-62
2021/12/21 07:58:54;;;;;;;20.83;12.63;;;;;;;;;;5056609;28;20413;-62
2021/12/21 08:01:20;;;;;;;29.67;14.50;;;;;;;;;;5056202;28;20410;-62
2021/12/21 08:03:46;;;;;;;26.03;13.97;;;;;;;;;;5056730;28;20876;-61
2021/12/21 08:06:13;;;;;;;17.80;12.60;;;;;;;;;;5057058;28;20437;-62
2021/12/21 08:08:43;;;;;;;21.37;12.80;;;;;;;;;;5056889;28;20772;-62
2021/12/21 08:14:08;;;;;;;24.10;12.90;;;;;;;;;;5033089;28;20428;-62
2021/12/21 08:16:34;;;;;;;19.43;12.97;;;;;;;;;;5056602;28;20440;-62
2021/12/21 08:19:00;;;;;;;22.70;13.97;;;;;;;;;;5053818;28;20422;-64
2021/12/21 08:21:26;;;;;;;19.77;12.30;;;;;;;;;;5054003;28;20413;-62
2021/12/21 08:23:53;;;;;;;27.30;14.70;;;;;;;;;;5053355;28;20455;-63
2021/12/21 08:26:19;;;;;;;24.90;12.60;;;;;;;;;;5056035;28;20431;-66
2021/12/21 08:28:45;;;;;;;24.70;13.83;;;;;;;;;;5055599;28;20500;-63
2021/12/21 08:31:12;;;;;;;25.77;13.13;;;;;;;;;;5056875;28;20417;-62
2021/12/21 08:33:38;;;;;;;24.60;13.17;;;;;;;;;;5058105;28;20457;-62
2021/12/21 08:36:05;;;;;;;26.20;12.60;;;;;;;;;;5058342;28;20836;-64
2021/12/21 08:38:32;;;;;;;22.70;13.57;;;;;;;;;;5055271;28;20468;-63
2021/12/21 08:40:59;;;;;;;25.30;15.47;;;;;;;;;;5067196;28;20815;-62
2021/12/21 08:43:28;;;;;;;18.53;12.20;;;;;;;;;;5076108;28;20412;-63
2021/12/21 08:45:55;;;;;;;22.10;13.40;;;;;;;;;;5056802;28;20413;-62
2021/12/21 08:48:22;;;;;;;23.90;13.87;;;;;;;;;;5054684;28;20418;-62
2021/12/21 08:50:49;;;;;;;20.63;12.80;;;;;;;;;;5053980;28;20410;-62
2021/12/21 08:53:15;;;;;;;20.80;12.73;;;;;;;;;;5053034;28;20410;-61
2021/12/21 08:55:42;;;;;;;24.20;14.27;;;;;;;;;;5055389;28;20410;-63
2021/12/21 08:58:08;;;;;;;22.33;15.00;;;;;;;;;;5054462;28;20410;-62
2021/12/21 09:00:35;;;;;;;21.10;13.33;;;;;;;;;;5053530;28;20413;-63
2021/12/21 09:03:01;;;;;;;23.97;13.40;;;;;;;;;;5054256;28;20471;-62
2021/12/21 09:05:30;;;;;;;21.70;13.00;;;;;;;;;;5055520;28;20462;-63
2021/12/21 09:07:57;;;;;;;22.20;14.13;;;;;;;;;;5055094;28;20409;-63
2021/12/21 09:10:24;;;;;;;24.97;13.87;;;;;;;;;;5055231;28;20883;-64
2021/12/21 09:12:51;;;;;;;26.70;13.87;;;;;;;;;;5054207;28;20414;-65
2021/12/21 09:15:18;;;;;;;22.77;13.97;;;;;;;;;;5054640;28;20454;-62
2021/12/21 09:17:44;;;;;;;23.00;12.97;;;;;;;;;;5053834;28;20421;-59
2021/12/21 09:20:13;;;;;;;20.50;13.70;;;;;;;;;;5057141;28;20413;-61
2021/12/21 09:22:39;;;;;;;19.17;13.00;;;;;;;;;;5056804;28;20410;-61
2021/12/21 09:25:06;;;;;;;25.20;14.60;;;;;;;;;;5055999;28;20481;-61
2021/12/21 09:27:32;;;;;;;21.53;14.20;;;;;;;;;;5056041;28;20406;-60
2021/12/21 09:29:58;;;;;;;24.83;14.47;;;;;;;;;;5056233;28;20402;-62
2021/12/21 09:32:24;;;;;;;21.73;14.20;;;;;;;;;;5056221;28;20761;-62
2021/12/21 09:34:51;;;;;;;21.87;15.23;;;;;;;;;;5056878;28;20539;-62
2021/12/21 09:37:20;;;;;;;22.70;14.17;;;;;;;;;;5055630;28;20401;-62
2021/12/21 09:39:47;;;;;;;19.87;12.83;;;;;;;;;;5055947;28;20902;-61
2021/12/21 09:42:16;;;;;;;19.40;13.53;;;;;;;;;;5056104;28;20473;-61
2021/12/21 09:44:42;;;;;;;27.37;14.17;;;;;;;;;;5055402;28;20453;-61
2021/12/21 09:47:09;;;;;;;22.10;14.53;;;;;;;;;;5054682;28;20405;-60
2021/12/21 09:49:35;;;;;;;22.37;12.63;;;;;;;;;;5050423;28;20460;-61
2021/12/21 09:52:02;;;;;;;24.30;14.70;;;;;;;;;;5049158;28;20827;-61
2021/12/21 09:54:29;;;;;;;19.40;12.17;;;;;;;;;;5053359;28;20529;-61
2021/12/21 09:56:56;;;;;;;21.63;13.40;;;;;;;;;;5054050;28;20497;-61
2021/12/21 09:59:22;;;;;;;20.37;12.87;;;;;;;;;;5054391;28;20402;-59
2021/12/21 10:01:48;;;;;;;21.80;14.27;;;;;;;;;;5054842;28;20398;-62
2021/12/21 10:04:14;;;;;;;19.47;14.20;;;;;;;;;;5054753;28;20569;-61
2021/12/21 10:06:49;;;;;;;19.40;12.73;;;;;;;;;;5055401;28;20397;-62
2021/12/21 10:09:15;;;;;;;19.00;12.60;;;;;;;;;;5055227;28;20455;-62
2021/12/21 10:11:47;;;;;;;20.33;13.43;;;;;;;;;;5054822;28;20430;-62
2021/12/21 10:14:14;;;;;;;18.63;12.30;;;;;;;;;;5055125;28;20461;-61
2021/12/21 10:16:40;;;;;;;18.57;13.07;;;;;;;;;;5055043;28;20409;-61
2021/12/21 10:19:07;;;;;;;18.93;11.70;;;;;;;;;;5055011;28;20451;-62
2021/12/21 10:21:33;;;;;;;19.50;12.47;;;;;;;;;;5054517;28;20421;-61
2021/12/21 10:23:59;;;;;;;20.17;12.17;;;;;;;;;;5054623;28;20464;-61
2021/12/21 10:26:26;;;;;;;17.90;11.80;;;;;;;;;;5052208;28;20765;-62
2021/12/21 10:28:54;;;;;;;15.23;11.17;;;;;;;;;;5039836;28;20521;-62
2021/12/21 10:31:23;;;;;;;24.23;16.03;;;;;;;;;;5024598;28;20472;-61
2021/12/21 10:33:49;;;;;;;18.37;11.67;;;;;;;;;;5044860;28;20511;-62
2021/12/21 10:36:16;;;;;;;23.53;11.03;;;;;;;;;;5046255;28;20907;-62
2021/12/21 10:38:48;;;;;;;15.47;11.40;;;;;;;;;;5048511;28;20425;-61
2021/12/21 10:41:16;;;;;;;16.40;12.53;;;;;;;;;;5036452;28;20766;-60
2021/12/21 10:43:42;;;;;;;16.30;11.40;;;;;;;;;;5032956;28;20553;-60
2021/12/21 10:46:09;;;;;;;20.00;12.43;;;;;;;;;;5032867;28;20460;-61
2021/12/21 10:48:38;;;;;;;18.53;10.70;;;;;;;;;;5037354;28;20430;-63
2021/12/21 10:51:08;;;;;;;14.97;11.67;;;;;;;;;;5038619;28;20895;-63
2021/12/21 10:53:34;;;;;;;16.00;11.23;;;;;;;;;;5033107;28;20790;-61
2021/12/21 10:56:04;;;;;;;20.67;10.60;;;;;;;;;;5033223;28;20427;-61
2021/12/21 10:58:30;;;;;;;15.30;10.70;;;;;;;;;;5031804;28;20403;-62
2021/12/21 11:00:58;;;;;;;18.77;10.83;;;;;;;;;;5034815;28;20747;-62
2021/12/21 11:03:30;;;;;;;16.93;12.03;;;;;;;;;;5035180;28;20424;-62
2021/12/21 11:06:07;;;;;;;17.27;11.53;;;;;;;;;;5035045;28;20403;-62
2021/12/21 11:08:36;;;;;;;18.37;10.97;;;;;;;;;;5035037;28;20870;-62
2021/12/21 11:11:02;;;;;;;19.00;11.67;;;;;;;;;;5034528;28;20402;-60
2021/12/21 11:13:28;;;;;;;15.80;11.00;;;;;;;;;;5034892;28;20537;-62
2021/12/21 11:15:56;;;;;;;16.67;11.03;;;;;;;;;;5034469;28;20402;-62
2021/12/21 11:18:23;;;;;;;15.17;9.90;;;;;;;;;;5034817;28;20407;-62
2021/12/21 11:20:50;;;;;;;15.63;10.43;;;;;;;;;;5034405;28;20497;-61
2021/12/21 11:23:18;;;;;;;16.43;10.90;;;;;;;;;;5034506;28;20407;-60
2021/12/21 11:25:46;;;;;;;16.03;10.40;;;;;;;;;;5034543;28;20437;-62
2021/12/21 11:28:13;;;;;;;14.00;10.30;;;;;;;;;;5034883;28;20402;-62
2021/12/21 11:30:41;;;;;;;14.83;10.90;;;;;;;;;;5033294;28;20421;-60
2021/12/21 11:33:07;;;;;;;14.73;10.70;;;;;;;;;;5034854;28;20443;-62
2021/12/21 11:38:05;;;;;;;14.80;11.37;;;;;;;;;;5037412;28;20851;-61
2021/12/21 11:40:32;;;;;;;18.60;10.83;;;;;;;;;;5053832;28;20454;-62
2021/12/21 11:43:17;;;;;;;17.50;12.57;;;;;;;;;;5054355;28;20417;-60
2021/12/21 11:46:01;;;;;;;17.93;12.00;;;;;;;;;;5054206;28;20410;-58
2021/12/21 11:48:42;;;;;;;16.37;12.60;;;;;;;;;;5052668;28;20401;-61
2021/12/21 11:51:10;;;;;;;17.00;11.83;;;;;;;;;;5052954;28;20723;-63
2021/12/21 11:53:36;;;;;;;16.60;11.03;;;;;;;;;;5052843;28;20774;-62
2021/12/21 11:56:03;;;;;;;16.87;10.87;;;;;;;;;;5053190;28;20401;-63
2021/12/21 11:58:32;;;;;;;17.60;11.23;;;;;;;;;;5052194;28;20921;-59
2021/12/21 12:01:06;;;;;;;16.97;11.17;;;;;;;;;;5056247;28;20412;-63
2021/12/21 12:03:36;;;;;;;16.70;11.23;;;;;;;;;;5056184;28;22227;-60
2021/12/21 12:06:04;;;;;;;14.23;10.67;;;;;;;;;;5056067;28;20391;-56
2021/12/21 12:08:46;;;;;;;18.70;11.07;;;;;;;;;;5056306;28;20903;-61
2021/12/21 12:11:24;;;;;;;14.30;8.53;;;;;;;;;;5056015;28;20401;-64
2021/12/21 12:13:50;;;;;;;16.10;10.53;;;;;;;;;;5056110;28;20421;-62
2021/12/21 12:16:17;;;;;;;16.97;9.23;;;;;;;;;;5056379;28;20413;-60
2021/12/21 12:18:48;;;;;;;16.97;11.17;;;;;;;;;;5055596;28;20402;-61
2021/12/21 12:21:21;;;;;;;15.57;10.10;;;;;;;;;;5054613;28;20891;-59
2021/12/21 12:23:48;;;;;;;17.63;10.73;;;;;;;;;;5049083;28;20465;-63
2021/12/21 12:26:31;;;;;;;18.20;11.80;;;;;;;;;;5052314;28;20433;-62
2021/12/21 12:28:58;;;;;;;15.53;10.97;;;;;;;;;;5054733;28;20755;-62
2021/12/21 12:31:28;;;;;;;15.00;9.87;;;;;;;;;;5056012;28;20760;-61
2021/12/21 12:33:54;;;;;;;16.37;10.73;;;;;;;;;;5056001;28;20457;-62
2021/12/21 12:36:32;;;;;;;14.07;10.50;;;;;;;;;;5055044;28;20479;-64
2021/12/21 12:38:58;;;;;;;15.73;10.30;;;;;;;;;;5055510;28;20392;-63
2021/12/21 12:41:24;;;;;;;15.93;10.40;;;;;;;;;;5055354;28;20406;-62
2021/12/21 12:43:50;;;;;;;13.50;8.43;;;;;;;;;;5055375;28;20511;-63
2021/12/21 12:46:24;;;;;;;14.03;8.10;;;;;;;;;;5054926;28;20409;-59
2021/12/21 12:48:50;;;;;;;14.57;10.00;;;;;;;;;;5054427;28;20402;-62
2021/12/21 12:51:28;;;;;;;14.50;8.87;;;;;;;;;;5054061;28;20829;-62
2021/12/21 12:53:55;;;;;;;13.07;8.77;;;;;;;;;;5055422;28;20422;-61
2021/12/21 12:56:21;;;;;;;13.87;9.50;;;;;;;;;;5054445;28;20773;-61
2021/12/21 12:58:51;;;;;;;14.43;9.70;;;;;;;;;;5055720;28;20409;-61
2021/12/21 13:01:23;;;;;;;13.80;8.93;;;;;;;;;;5056112;28;20387;-61
2021/12/21 13:03:51;;;;;;;18.40;10.50;;;;;;;;;;5056710;28;20449;-61
2021/12/21 13:06:18;;;;;;;18.00;11.00;;;;;;;;;;5055673;28;20402;-59
2021/12/21 13:08:45;;;;;;;13.40;9.87;;;;;;;;;;5055653;28;20860;-61
2021/12/21 13:11:12;;;;;;;16.00;9.77;;;;;;;;;;5055318;28;20424;-61
2021/12/21 13:13:40;;;;;;;16.70;11.10;;;;;;;;;;5056124;28;20553;-60
2021/12/21 13:16:08;;;;;;;16.60;9.33;;;;;;;;;;5055263;28;20414;-61
2021/12/21 13:18:40;;;;;;;17.20;10.67;;;;;;;;;;5056007;28;20404;-59
2021/12/21 13:21:06;;;;;;;13.53;9.50;;;;;;;;;;5054513;28;20402;-60
2021/12/21 13:23:32;;;;;;;17.00;10.40;;;;;;;;;;5054991;28;20430;-62
2021/12/21 13:26:03;;;;;;;15.57;9.90;;;;;;;;;;5054848;28;20826;-61
2021/12/21 13:28:32;;;;;;;18.57;10.23;;;;;;;;;;5054102;28;20463;-62
2021/12/21 13:30:58;;;;;;;16.10;11.07;;;;;;;;;;5043093;28;20440;-62
2021/12/21 13:33:26;;;;;;;14.17;9.73;;;;;;;;;;5054865;28;20436;-62
2021/12/21 13:35:52;;;;;;;13.90;9.93;;;;;;;;;;5055082;28;20386;-61
2021/12/21 13:38:19;;;;;;;22.70;9.27;;;;;;;;;;5054667;28;20433;-62
2021/12/21 13:40:57;;;;;;;19.77;9.77;;;;;;;;;;5055263;28;20788;-62
2021/12/21 13:43:23;;;;;;;15.43;10.77;;;;;;;;;;5055082;28;20390;-62
2021/12/21 13:45:56;;;;;;;22.73;11.53;;;;;;;;;;5054743;28;20401;-62
2021/12/21 13:48:22;;;;;;;17.30;11.00;;;;;;;;;;5054581;28;20386;-62
2021/12/21 13:50:48;;;;;;;20.87;11.57;;;;;;;;;;5055051;28;20894;-59
2021/12/21 13:53:18;;;;;;;14.53;10.83;;;;;;;;;;5054375;28;20464;-62
2021/12/21 13:55:44;;;;;;;16.53;10.80;;;;;;;;;;5053477;28;20497;-62
2021/12/21 13:58:11;;;;;;;18.20;11.30;;;;;;;;;;5054383;28;20410;-62
2021/12/21 14:00:40;;;;;;;20.23;12.67;;;;;;;;;;5054980;28;20405;-62
2021/12/21 14:03:16;;;;;;;19.63;11.17;;;;;;;;;;5053406;28;20444;-61
2021/12/21 14:05:45;;;;;;;15.17;10.70;;;;;;;;;;5055020;28;20800;-62
2021/12/21 14:08:12;;;;;;;16.60;10.77;;;;;;;;;;5054878;28;20906;-60
2021/12/21 14:10:41;;;;;;;17.63;11.13;;;;;;;;;;5054665;28;20433;-62
2021/12/21 14:13:07;;;;;;;19.43;10.83;;;;;;;;;;5054941;28;20485;-62
2021/12/21 14:15:37;;;;;;;22.33;12.03;;;;;;;;;;5054300;28;20525;-62
2021/12/21 14:18:18;;;;;;;21.90;12.23;;;;;;;;;;5053859;28;20493;-62
2021/12/21 14:20:44;;;;;;;19.73;11.40;;;;;;;;;;5054136;28;20425;-61
2021/12/21 14:23:16;;;;;;;20.43;12.70;;;;;;;;;;5052067;28;20413;-58
2021/12/21 14:25:42;;;;;;;21.00;13.40;;;;;;;;;;5053983;28;20449;-62
2021/12/21 14:28:09;;;;;;;19.93;11.90;;;;;;;;;;5054497;28;20909;-61
2021/12/21 14:30:35;;;;;;;19.03;11.17;;;;;;;;;;5054049;28;20894;-62
2021/12/21 14:33:08;;;;;;;23.47;15.50;;;;;;;;;;5054114;28;20430;-63
2021/12/21 14:35:35;;;;;;;30.33;13.47;;;;;;;;;;5053977;28;20466;-62
2021/12/21 14:38:12;;;;;;;22.23;13.97;;;;;;;;;;5054366;28;20466;-62
2021/12/21 14:40:56;;;;;;;27.53;15.80;;;;;;;;;;5053576;28;20447;-63
2021/12/21 14:43:24;;;;;;;20.07;13.33;;;;;;;;;;5049898;28;20457;-63
2021/12/21 14:45:50;;;;;;;20.73;13.70;;;;;;;;;;5045225;28;20407;-63
2021/12/21 14:48:17;;;;;;;19.13;10.40;;;;;;;;;;5034148;28;20410;-63
2021/12/21 14:50:49;;;;;;;18.67;11.70;;;;;;;;;;5035399;28;20914;-62
2021/12/21 14:53:17;;;;;;;19.57;11.93;;;;;;;;;;5033440;28;20403;-62
2021/12/21 14:55:43;;;;;;;17.80;11.37;;;;;;;;;;5033716;28;20449;-62
2021/12/21 14:58:10;;;;;;;24.53;13.03;;;;;;;;;;5036859;28;20731;-61
2021/12/21 15:00:42;;;;;;;19.30;12.13;;;;;;;;;;5044966;28;20804;-61
2021/12/21 15:03:09;;;;;;;29.00;12.10;;;;;;;;;;5047175;28;20783;-63
2021/12/21 15:05:37;;;;;;;20.23;12.70;;;;;;;;;;5042295;28;20465;-62
2021/12/21 15:08:04;;;;;;;20.10;11.77;;;;;;;;;;5037555;28;20426;-61
2021/12/21 15:10:32;;;;;;;21.73;14.40;;;;;;;;;;5033087;28;20390;-60
2021/12/21 15:12:59;;;;;;;22.53;13.20;;;;;;;;;;5037749;28;20425;-62
2021/12/21 15:15:26;;;;;;;22.70;13.00;;;;;;;;;;5052973;28;20414;-62
2021/12/21 15:17:52;;;;;;;24.20;13.10;;;;;;;;;;5053447;28;20488;-63
2021/12/21 15:20:19;;;;;;;23.70;12.50;;;;;;;;;;5053334;28;20568;-62
2021/12/21 15:22:46;;;;;;;23.00;13.60;;;;;;;;;;5053320;28;20406;-63
2021/12/21 15:25:12;;;;;;;21.77;13.10;;;;;;;;;;5052596;28;20445;-63
2021/12/21 15:27:39;;;;;;;23.50;12.37;;;;;;;;;;5052740;28;20398;-63
2021/12/21 15:30:06;;;;;;;24.80;13.40;;;;;;;;;;5052847;28;20480;-63
2021/12/21 15:32:32;;;;;;;17.33;12.43;;;;;;;;;;5053249;28;20401;-64
2021/12/21 15:35:00;;;;;;;16.30;11.47;;;;;;;;;;5055004;28;20450;-63
2021/12/21 15:37:26;;;;;;;23.03;13.70;;;;;;;;;;5056985;28;20474;-63